createdAt,value
2023-01-01T00:01:27.736Z,100885.25
2023-01-01T00:03:57.247Z,100884.44
2023-01-01T00:06:24.937Z,100889.69
2023-01-01T00:09:12.944Z,100893.66
2023-01-01T00:11:40.550Z,100896.81
2023-01-01T00:14:12.310Z,100898.44
2023-01-01T00:46:50.064Z,100906.41
2023-01-01T00:49:17.785Z,100915.16
2023-01-01T00:51:45.409Z,100898.38
2023-01-01T00:54:13.327Z,100908.72
2023-01-01T00:56:40.952Z,100918.28
2023-01-01T00:59:08.687Z,100915.50
2023-01-01T01:01:36.451Z,100918.28
2023-01-01T01:04:05.588Z,100919.91
2023-01-01T01:06:33.300Z,100919.91
2023-01-01T01:09:00.914Z,100915.97
2023-01-01T01:11:28.517Z,100926.34
2023-01-01T01:13:56.513Z,100903.75
2023-01-01T01:39:54.235Z,100954.34
2023-01-01T01:42:22.045Z,100942.28
2023-01-01T01:44:51.051Z,100946.75
2023-01-01T01:47:18.752Z,100942.78
2023-01-01T01:49:46.987Z,100921.91
2023-01-01T01:52:14.601Z,100925.50
2023-01-01T01:54:42.222Z,100937.53
2023-01-01T01:57:11.824Z,100940.34
2023-01-01T01:59:41.731Z,100938.34
2023-01-01T02:02:11.224Z,100942.28
2023-01-01T02:04:38.953Z,100934.38
2023-01-01T02:07:06.957Z,100940.69
2023-01-01T02:09:34.785Z,100947.91
2023-01-01T02:12:02.391Z,100948.72
2023-01-01T02:14:33.222Z,100941.50
2023-01-01T02:17:01.797Z,100943.94
2023-01-01T02:19:30.115Z,100943.94
2023-01-01T02:22:00.881Z,100947.09
2023-01-01T02:24:40.790Z,100944.66
2023-01-01T02:27:09.565Z,100936.69
2023-01-01T02:29:40.403Z,100937.53
2023-01-01T02:32:09.537Z,100932.75
2023-01-01T02:34:38.237Z,100930.41
2023-01-01T02:37:06.579Z,100928.78
2023-01-01T02:39:35.004Z,100938.34
2023-01-01T02:42:02.931Z,100934.38
2023-01-01T02:44:30.544Z,100928.78
2023-01-01T02:46:59.482Z,100922.72
2023-01-01T02:49:27.140Z,100925.50
2023-01-01T02:51:59.626Z,100912.69
2023-01-01T02:54:29.775Z,100932.75
2023-01-01T02:56:59.113Z,100918.28
2023-01-01T02:59:45.135Z,100917.97
2023-01-01T03:46:13.747Z,100935.09
2023-01-01T03:49:02.136Z,100944.66
2023-01-01T03:51:33.079Z,100942.22
2023-01-01T03:54:00.931Z,100947.00
2023-01-01T03:56:31.063Z,100952.59
2023-01-01T03:59:00.710Z,100962.19
2023-01-01T04:45:29.775Z,100994.84
2023-01-01T04:47:57.427Z,101010.44
2023-01-01T04:50:25.002Z,101000.88
2023-01-01T04:52:54.036Z,101008.44
2023-01-01T04:55:21.703Z,101005.66
2023-01-01T04:57:49.310Z,100998.88
2023-01-01T05:32:26.723Z,101008.56
2023-01-01T05:34:55.121Z,101008.56
2023-01-01T05:37:22.991Z,101003.78
2023-01-01T05:39:50.642Z,101007.38
2023-01-01T05:42:18.880Z,101007.84
2023-01-01T05:44:46.492Z,101011.09
2023-01-01T05:47:15.341Z,101018.69
2023-01-01T05:49:44.361Z,101016.69
2023-01-01T05:52:12.020Z,101023.09
2023-01-01T05:54:40.200Z,101022.75
2023-01-01T05:57:07.954Z,101021.13
2023-01-01T05:59:35.530Z,101018.31
2023-01-01T06:02:03.156Z,101017.50
2023-01-01T06:04:30.937Z,101030.69
2023-01-01T06:07:00.056Z,101018.31
2023-01-01T06:09:28.165Z,101014.34
2023-01-01T06:11:55.993Z,101012.72
2023-01-01T06:14:23.673Z,101013.53
2023-01-01T06:16:51.290Z,101036.38
2023-01-01T06:19:18.917Z,101051.97
2023-01-01T06:21:46.514Z,101041.97
2023-01-01T06:24:15.464Z,101051.97
2023-01-01T06:26:43.050Z,101057.25
2023-01-01T06:29:10.752Z,101055.94
2023-01-01T06:31:40.865Z,101055.94
2023-01-01T06:34:09.194Z,101062.34
2023-01-01T06:36:36.795Z,101057.56
2023-01-01T06:39:04.496Z,101060.84
2023-01-01T06:41:33.933Z,101066.44
2023-01-01T06:44:01.946Z,101065.63
2023-01-01T06:46:29.951Z,101065.63
2023-01-01T06:48:57.994Z,101067.25
2023-01-01T06:51:26.341Z,101068.88
2023-01-01T06:53:54.434Z,101061.66
2023-01-01T06:56:22.075Z,101069.69
2023-01-01T06:58:51.502Z,101066.34
2023-01-01T07:01:19.684Z,101076.47
2023-01-01T07:03:51.064Z,101076.09
2023-01-01T07:06:18.629Z,101078.44
2023-01-01T07:08:46.220Z,101088.47
2023-01-01T07:11:13.782Z,101088.47
2023-01-01T07:13:41.372Z,101091.25
2023-01-01T07:16:13.472Z,101096.41
2023-01-01T07:18:41.261Z,101093.63
2023-01-01T07:21:28.491Z,101097.59
2023-01-01T07:23:57.286Z,101106.44
2023-01-01T07:26:25.813Z,101112.03
2023-01-01T07:28:54.385Z,101104.81
2023-01-01T07:31:23.395Z,101109.59
2023-01-01T07:33:51.265Z,101104.69
2023-01-01T07:36:18.839Z,101108.06
2023-01-01T07:38:46.420Z,101114.47
2023-01-01T07:41:14.020Z,101119.25
2023-01-01T07:43:41.644Z,101123.22
2023-01-01T07:46:11.181Z,101131.63
2023-01-01T07:48:40.460Z,101151.22
2023-01-01T07:51:08.121Z,101149.59
2023-01-01T07:53:35.965Z,101139.91
2023-01-01T07:56:03.547Z,101140.72
2023-01-01T07:58:31.176Z,101137.59
2023-01-01T08:00:58.727Z,101146.78
2023-01-01T08:03:26.577Z,101151.22
2023-01-01T08:05:56.006Z,101158.44
2023-01-01T08:08:23.802Z,101153.66
2023-01-01T08:10:51.959Z,101152.84
2023-01-01T08:13:19.590Z,101154.47
2023-01-01T08:15:47.246Z,101157.25
2023-01-01T08:18:14.841Z,101161.72
2023-01-01T08:20:42.432Z,101167.31
2023-01-01T08:23:11.643Z,101176.84
2023-01-01T08:25:39.465Z,101183.63
2023-01-01T08:28:07.051Z,101190.38
2023-01-01T08:30:34.650Z,101186.41
2023-01-01T08:33:02.318Z,101183.16
2023-01-01T08:35:29.982Z,101191.56
2023-01-01T08:37:57.607Z,101188.75
2023-01-01T08:40:26.882Z,101189.47
2023-01-01T08:42:54.568Z,101203.94
2023-01-01T08:45:22.214Z,101196.34
2023-01-01T08:47:49.862Z,101196.69
2023-01-01T08:50:17.477Z,101204.25
2023-01-01T08:52:45.108Z,101209.53
2023-01-01T08:55:12.726Z,101206.25
2023-01-01T08:57:42.080Z,101210.22
2023-01-01T09:00:10.883Z,101215.00
2023-01-01T09:02:38.705Z,101218.97
2023-01-01T09:05:06.832Z,101218.16
2023-01-01T09:07:34.384Z,101232.16
2023-01-01T09:10:01.919Z,101236.59
2023-01-01T09:12:29.564Z,101247.28
2023-01-01T09:14:58.546Z,101245.34
2023-01-01T09:17:26.105Z,101246.47
2023-01-01T09:19:53.704Z,101243.69
2023-01-01T09:22:21.327Z,101268.06
2023-01-01T09:24:48.937Z,101258.47
2023-01-01T09:27:16.504Z,101256.84
2023-01-01T09:29:44.142Z,101267.25
2023-01-01T09:32:13.310Z,101262.47
2023-01-01T09:34:41.255Z,101259.66
2023-01-01T09:37:08.822Z,101255.69
2023-01-01T09:39:36.436Z,101260.47
2023-01-01T09:42:06.151Z,101248.47
2023-01-01T09:44:42.597Z,101257.22
2023-01-01T09:47:16.592Z,101258.84
2023-01-01T09:49:44.463Z,101250.94
2023-01-01T09:52:12.876Z,101257.34
2023-01-01T09:54:41.554Z,101266.06
2023-01-01T09:57:14.807Z,101272.97
2023-01-01T09:59:45.820Z,101282.97
2023-01-01T10:02:17.663Z,101275.75
2023-01-01T10:04:49.877Z,101272.97
2023-01-01T10:07:19.333Z,101282.97
2023-01-01T10:09:47.954Z,101282.97
2023-01-01T10:12:17.173Z,101284.59
2023-01-01T10:14:45.424Z,101288.56
2023-01-01T10:17:15.961Z,101284.59
2023-01-01T10:19:44.254Z,101289.38
2023-01-01T10:22:12.933Z,101286.94
2023-01-01T10:24:43.016Z,101299.78
2023-01-01T10:27:13.013Z,101298.16
2023-01-01T10:29:42.119Z,101302.56
2023-01-01T10:32:18.126Z,101314.94
2023-01-01T10:34:45.744Z,101310.50
2023-01-01T10:37:13.307Z,101302.94
2023-01-01T10:39:40.891Z,101306.53
2023-01-01T10:42:08.573Z,101310.16
2023-01-01T10:44:36.600Z,101298.84
2023-01-01T10:47:05.310Z,101298.16
2023-01-01T10:49:34.251Z,101308.97
2023-01-01T10:52:02.788Z,101300.59
2023-01-01T10:54:34.286Z,101291.38
2023-01-01T10:57:01.878Z,101288.13
2023-01-01T10:59:36.613Z,101286.94
2023-01-01T11:02:17.280Z,101309.34
2023-01-01T11:04:46.367Z,101304.56
2023-01-01T11:07:22.613Z,101317.72
2023-01-01T11:10:02.568Z,101320.53
2023-01-01T11:13:03.532Z,101319.34
2023-01-01T11:15:23.548Z,101322.97
2023-01-01T11:17:51.183Z,101330.56
2023-01-01T11:20:21.074Z,101346.16
2023-01-01T11:22:50.300Z,101347.78
2023-01-01T11:25:22.808Z,101342.91
2023-01-01T11:27:50.636Z,101345.34
2023-01-01T11:30:22.330Z,101331.72
2023-01-01T11:32:55.237Z,101334.97
2023-01-01T11:35:25.729Z,101331.38
2023-01-01T11:37:54.170Z,101328.56
2023-01-01T11:40:22.986Z,101326.59
2023-01-01T11:42:51.136Z,101318.19
2023-01-01T11:45:26.839Z,101336.59
2023-01-01T11:47:55.386Z,101342.19
2023-01-01T11:50:26.639Z,101349.44
2023-01-01T11:52:54.344Z,101335.47
2023-01-01T11:55:23.606Z,101349.44
2023-01-01T11:57:54.723Z,101345.81
2023-01-01T12:00:22.294Z,101343.84
2023-01-01T12:02:51.112Z,101346.28
2023-01-01T12:05:19.351Z,101345.47
2023-01-01T12:07:48.380Z,101352.72
2023-01-01T12:10:18.110Z,101351.91
2023-01-01T12:12:47.682Z,101355.50
2023-01-01T12:15:16.393Z,101358.31
2023-01-01T12:17:46.899Z,101363.09
2023-01-01T12:20:15.480Z,101362.72
2023-01-01T12:22:43.113Z,101353.53
2023-01-01T12:25:13.128Z,101363.09
2023-01-01T12:27:44.124Z,101363.91
2023-01-01T12:30:16.651Z,101353.53
2023-01-01T12:33:05.659Z,101343.13
2023-01-01T12:35:38.381Z,101346.28
2023-01-01T12:38:08.438Z,101345.47
2023-01-01T12:40:39.643Z,101348.28
2023-01-01T12:43:08.785Z,101347.09
2023-01-01T12:45:44.720Z,101330.31
2023-01-01T12:48:19.548Z,101331.13
2023-01-01T12:50:54.993Z,101336.72
2023-01-01T12:53:26.029Z,101343.13
2023-01-01T12:56:04.165Z,101327.97
2023-01-01T12:58:32.405Z,101348.06
2023-01-01T13:01:00.762Z,101339.97
2023-01-01T13:03:29.474Z,101340.81
2023-01-01T13:05:57.661Z,101344.75
2023-01-01T13:08:25.229Z,101353.16
2023-01-01T13:10:53.114Z,101350.38
2023-01-01T13:13:22.047Z,101342.44
2023-01-01T13:15:50.488Z,101356.44
2023-01-01T13:18:20.097Z,101352.03
2023-01-01T13:20:48.063Z,101359.25
2023-01-01T13:23:30.566Z,101370.44
2023-01-01T13:26:13.421Z,101367.97
2023-01-01T13:28:42.561Z,101380.00
2023-01-01T13:31:10.204Z,101372.44
2023-01-01T13:33:38.992Z,101371.25
2023-01-01T13:36:24.353Z,101394.47
2023-01-01T13:38:52.097Z,101400.06
2023-01-01T13:41:40.363Z,101404.03
2023-01-01T13:44:15.069Z,101424.78
2023-01-01T13:46:47.032Z,101424.78
2023-01-01T13:49:19.466Z,101424.78
2023-01-01T13:52:06.864Z,101420.81
2023-01-01T13:54:48.830Z,101424.44
2023-01-01T13:57:21.399Z,101433.66
2023-01-01T13:59:52.719Z,101435.28
2023-01-01T14:02:22.238Z,101446.47
2023-01-01T14:04:50.512Z,101452.88
2023-01-01T14:07:49.655Z,101452.06
2023-01-01T14:10:17.566Z,101448.44
2023-01-01T14:12:45.367Z,101446.47
2023-01-01T14:15:18.507Z,101449.25
2023-01-01T14:17:46.193Z,101446.47
2023-01-01T14:20:16.172Z,101447.63
2023-01-01T14:22:44.554Z,101437.63
2023-01-01T14:25:15.433Z,101432.47
2023-01-01T14:27:44.166Z,101433.28
2023-01-01T14:30:16.461Z,101439.25
2023-01-01T14:32:45.573Z,101434.47
2023-01-01T14:35:14.620Z,101449.25
2023-01-01T14:37:42.213Z,101441.69
2023-01-01T14:40:10.589Z,101446.47
2023-01-01T14:42:38.209Z,101447.28
2023-01-01T14:45:06.257Z,101458.13
2023-01-01T14:47:34.200Z,101467.38
2023-01-01T14:50:03.963Z,101461.78
2023-01-01T14:52:32.223Z,101470.97
2023-01-01T14:55:00.564Z,101471.31
2023-01-01T14:57:30.760Z,101471.31
2023-01-01T14:59:58.519Z,101462.31
2023-01-01T15:02:26.595Z,101460.91
2023-01-01T15:04:54.246Z,101473.78
2023-01-01T15:07:23.754Z,101476.56
2023-01-01T15:09:51.351Z,101484.97
2023-01-01T15:12:20.172Z,101491.38
2023-01-01T15:14:47.987Z,101488.91
2023-01-01T15:17:16.365Z,101488.91
2023-01-01T15:19:44.963Z,101494.50
2023-01-01T15:22:12.789Z,101499.78
2023-01-01T15:24:41.787Z,101501.78
2023-01-01T15:27:15.879Z,101503.41
2023-01-01T15:29:47.206Z,101504.06
2023-01-01T15:32:16.006Z,101505.03
2023-01-01T15:34:43.994Z,101505.03
2023-01-01T15:37:14.895Z,101510.63
2023-01-01T15:39:47.629Z,101516.22
2023-01-01T15:42:29.252Z,101516.22
2023-01-01T15:44:56.984Z,101526.25
2023-01-01T15:47:26.795Z,101522.63
2023-01-01T15:50:07.880Z,101529.06
2023-01-01T15:52:35.604Z,101525.09
2023-01-01T15:55:04.952Z,101531.50
2023-01-01T15:57:32.651Z,101530.69
2023-01-01T16:00:00.476Z,101537.94
2023-01-01T16:02:28.846Z,101549.13
2023-01-01T16:04:56.757Z,101532.34
2023-01-01T16:07:24.885Z,101538.75
2023-01-01T16:09:57.283Z,101545.16
2023-01-01T16:12:27.118Z,101545.16
2023-01-01T16:14:54.868Z,101532.34
2023-01-01T16:17:22.614Z,101532.34
2023-01-01T16:19:51.632Z,101532.34
2023-01-01T16:22:20.077Z,101537.94
2023-01-01T16:24:47.776Z,101532.34
2023-01-01T16:27:16.755Z,101537.94
2023-01-01T16:29:52.775Z,101539.56
2023-01-01T16:32:22.287Z,101533.97
2023-01-01T16:34:50.020Z,101532.34
2023-01-01T16:37:22.464Z,101532.34
2023-01-01T16:39:50.371Z,101530.00
2023-01-01T16:42:17.999Z,101530.00
2023-01-01T16:44:47.045Z,101542.81
2023-01-01T16:47:14.735Z,101551.22
2023-01-01T16:49:42.325Z,101555.66
2023-01-01T16:52:09.935Z,101556.47
2023-01-01T16:54:37.538Z,101564.53
2023-01-01T16:57:05.240Z,101570.16
2023-01-01T16:59:32.958Z,101574.09
2023-01-01T17:02:02.791Z,101562.88
2023-01-01T17:04:31.605Z,101571.28
2023-01-01T17:07:00.005Z,101569.31
2023-01-01T17:09:28.856Z,101572.13
2023-01-01T17:11:56.586Z,101584.16
2023-01-01T17:14:24.324Z,101576.56
2023-01-01T17:16:55.275Z,101592.53
2023-01-01T17:19:24.468Z,101581.34
2023-01-01T17:21:52.210Z,101578.53
2023-01-01T17:24:20.293Z,101586.13
2023-01-01T17:26:48.067Z,101580.53
2023-01-01T17:29:15.761Z,101582.16
2023-01-01T17:31:43.951Z,101577.38
2023-01-01T17:34:14.603Z,101577.72
2023-01-01T17:36:45.184Z,101576.56
2023-01-01T17:39:13.084Z,101572.94
2023-01-01T17:41:40.952Z,101582.97
2023-01-01T17:44:08.577Z,101573.75
2023-01-01T17:46:36.222Z,101563.38
2023-01-01T17:49:04.266Z,101577.38
2023-01-01T17:51:32.548Z,101571.78
2023-01-01T17:54:02.817Z,101575.75
2023-01-01T17:56:30.906Z,101566.19
2023-01-01T17:58:58.505Z,101566.19
2023-01-01T18:01:30.789Z,101554.97
2023-01-01T18:03:59.219Z,101566.19
2023-01-01T18:06:26.836Z,101573.41
2023-01-01T18:08:57.247Z,101555.19
2023-01-01T18:11:27.590Z,101579.00
2023-01-01T18:13:55.443Z,101575.03
2023-01-01T18:16:23.267Z,101560.22
2023-01-01T18:18:51.018Z,101566.63
2023-01-01T18:21:21.913Z,101563.84
2023-01-01T18:23:50.403Z,101563.38
2023-01-01T18:26:18.326Z,101577.84
2023-01-01T18:28:51.655Z,101565.00
2023-01-01T18:31:19.525Z,101572.25
2023-01-01T18:33:47.605Z,101582.63
2023-01-01T18:36:16.002Z,101586.22
2023-01-01T18:38:45.483Z,101579.81
2023-01-01T18:41:20.273Z,101590.19
2023-01-01T18:43:49.803Z,101585.41
2023-01-01T18:46:17.915Z,101580.63
2023-01-01T18:48:45.631Z,101590.19
2023-01-01T18:51:14.639Z,101594.63
2023-01-01T18:53:42.290Z,101603.84
2023-01-01T18:56:11.072Z,101601.88
2023-01-01T18:58:38.676Z,101595.81
2023-01-01T19:01:10.670Z,101595.81
2023-01-01T19:03:41.385Z,101595.81
2023-01-01T19:06:16.880Z,101598.59
2023-01-01T19:08:44.465Z,101595.00
2023-01-01T19:11:13.129Z,101607.00
2023-01-01T19:13:41.083Z,101609.81
2023-01-01T19:16:17.904Z,101609.00
2023-01-01T19:18:47.648Z,101596.47
2023-01-01T19:21:18.787Z,101602.09
2023-01-01T19:23:49.117Z,101601.25
2023-01-01T19:26:19.966Z,101600.44
2023-01-01T19:28:48.874Z,101597.66
2023-01-01T19:31:18.243Z,101598.81
2023-01-01T19:33:46.985Z,101590.41
2023-01-01T19:36:14.657Z,101595.19
2023-01-01T19:38:42.231Z,101590.78
2023-01-01T19:41:09.834Z,101593.94
2023-01-01T19:43:37.438Z,101597.88
2023-01-01T19:46:05.076Z,101590.63
2023-01-01T19:48:34.859Z,101582.25
2023-01-01T19:51:02.767Z,101585.03
2023-01-01T19:53:30.353Z,101581.06
2023-01-01T19:55:57.959Z,101582.72
2023-01-01T19:58:25.544Z,101582.72
2023-01-01T20:00:53.258Z,101571.53
2023-01-01T20:06:10.047Z,101552.41
2023-01-01T20:08:38.887Z,101552.41
2023-01-01T20:11:06.808Z,101554.03
2023-01-01T20:13:34.796Z,101554.03
2023-01-01T20:16:03.347Z,101554.03
2023-01-01T20:18:31.195Z,101544.47
2023-01-01T20:21:30.616Z,101550.88
2023-01-01T20:23:59.682Z,101544.47
2023-01-01T20:26:27.370Z,101546.09
2023-01-01T20:29:12.329Z,101547.75
2023-01-01T20:31:39.936Z,101536.53
2023-01-01T20:34:07.624Z,101542.16
2023-01-01T20:36:52.483Z,101534.22
2023-01-01T20:39:22.512Z,101534.22
2023-01-01T20:41:50.131Z,101535.84
2023-01-01T20:44:19.507Z,101533.84
2023-01-01T20:46:48.438Z,101530.25
2023-01-01T20:49:16.974Z,101528.59
2023-01-01T20:51:44.922Z,101529.41
2023-01-01T20:54:12.492Z,101530.25
2023-01-01T20:56:41.498Z,101536.31
2023-01-01T20:59:31.797Z,101531.88
2023-01-01T21:01:58.298Z,101548.66
2023-01-01T21:04:26.069Z,101540.25
2023-01-01T21:06:54.004Z,101538.28
2023-01-01T21:09:21.557Z,101509.47
2023-01-01T21:11:50.628Z,101510.63
2023-01-01T21:14:18.728Z,101509.47
2023-01-01T21:16:46.442Z,101496.63
2023-01-01T21:19:14.255Z,101497.81
2023-01-01T21:21:43.326Z,101511.81
2023-01-01T21:24:13.247Z,101520.22
2023-01-01T21:26:40.864Z,101523.81
2023-01-01T21:29:12.324Z,101526.25
2023-01-01T21:31:40.024Z,101531.88
2023-01-01T21:34:09.105Z,101519.84
2023-01-01T21:36:36.671Z,101520.66
2023-01-01T21:39:05.042Z,101525.44
2023-01-01T21:41:32.979Z,101515.06
2023-01-01T21:44:00.650Z,101543.06
2023-01-01T21:46:42.630Z,101548.66
2023-01-01T21:49:13.815Z,101543.06
2023-01-01T21:51:43.430Z,101525.44
2023-01-01T21:54:22.195Z,101520.66
2023-01-01T21:56:52.443Z,101535.47
2023-01-01T21:59:29.345Z,101532.69
2023-01-01T22:02:01.543Z,101535.47
2023-01-01T22:04:31.582Z,101532.69
2023-01-01T22:07:00.490Z,101530.72
2023-01-01T22:09:30.993Z,101533.53
2023-01-01T22:11:58.986Z,101530.72
2023-01-01T22:14:27.135Z,101527.94
2023-01-01T22:16:55.618Z,101529.56
2023-01-01T22:19:24.923Z,101527.09
2023-01-01T22:21:52.707Z,101532.34
2023-01-01T22:24:29.254Z,101532.69
2023-01-01T22:26:56.956Z,101530.72
2023-01-01T22:29:26.030Z,101522.31
2023-01-01T22:31:58.530Z,101522.31
2023-01-01T22:34:27.607Z,101516.72
2023-01-01T22:36:55.240Z,101509.47
2023-01-01T22:39:28.360Z,101526.25
2023-01-01T22:41:56.051Z,101522.31
2023-01-01T22:44:23.745Z,101522.31
2023-01-01T22:46:51.492Z,101520.66
2023-01-01T22:49:20.175Z,101505.03
2023-01-01T22:51:49.346Z,101507.84
2023-01-01T22:54:17.102Z,101495.00
2023-01-01T22:56:44.881Z,101495.00
2023-01-01T22:59:12.602Z,101493.38
2023-01-01T23:01:40.373Z,101479.38
2023-01-01T23:04:08.110Z,101476.59
2023-01-01T23:06:36.190Z,101480.56
2023-01-01T23:09:05.496Z,101476.59
2023-01-01T23:11:33.178Z,101470.16
2023-01-01T23:14:18.221Z,101467.38
2023-01-01T23:16:45.943Z,101468.19
2023-01-01T23:19:13.708Z,101462.59
2023-01-01T23:21:42.371Z,101455.81
2023-01-01T23:24:11.800Z,101447.78
2023-01-01T23:26:39.479Z,101437.38
2023-01-01T23:29:07.206Z,101443.81
2023-01-01T23:31:35.274Z,101424.44
2023-01-01T23:34:03.243Z,101433.41
2023-01-01T23:36:31.008Z,101431.78
2023-01-01T23:38:58.645Z,101430.97
2023-01-01T23:41:27.852Z,101426.19
2023-01-01T23:43:55.530Z,101406.09
2023-01-01T23:46:23.332Z,101407.75
2023-01-01T23:48:51.110Z,101405.78
2023-01-01T23:51:18.759Z,101402.16
2023-01-01T23:53:46.551Z,101396.56
2023-01-01T23:56:14.276Z,101392.59
2023-01-01T23:58:43.309Z,101386.50
